Time;durP1;ratioP1;P1;durP2;ratioP2;P2;SDS_P1;SDS_P2;PMS_P1;PMS_P2;Temp;Humidity;BMP_temperature;BMP_pressure;BME280_temperature;BME280_humidity;BME280_pressure;Samples;Min_cycle;Max_cycle;Signal;HPM_P1;HPM_P2
2023/01/17 00:02:04;;;;;;;3.28;0.52;;;3.40;99.90;;;;;;5092833;28;20082;-48
2023/01/17 00:10:06;;;;;;;4.82;0.60;;;3.00;99.90;;;;;;5092978;28;20396;-49
2023/01/17 00:12:33;;;;;;;3.88;0.30;;;3.00;99.90;;;;;;5093078;28;20051;-47
2023/01/17 00:14:59;;;;;;;2.92;0.57;;;2.90;99.90;;;;;;5092680;28;20043;-50
2023/01/17 00:17:27;;;;;;;6.78;1.10;;;2.90;99.90;;;;;;5092856;28;20573;-47
2023/01/17 01:35:09;;;;;;;7.22;1.50;;;2.60;99.90;;;;;;5094913;28;20120;-47
2023/01/17 01:37:35;;;;;;;11.45;1.63;;;2.70;99.90;;;;;;5076429;28;20039;-50
2023/01/17 01:40:00;;;;;;;7.05;1.27;;;2.70;99.90;;;;;;5095383;28;20137;-48
2023/01/17 01:42:26;;;;;;;14.82;1.10;;;2.80;99.90;;;;;;5095193;28;20135;-45
2023/01/17 01:44:54;;;;;;;11.32;1.33;;;2.70;99.90;;;;;;5094449;28;20039;-47
2023/01/17 01:47:39;;;;;;;14.23;1.92;;;2.60;99.90;;;;;;5095326;28;20190;-48
2023/01/17 01:50:08;;;;;;;15.57;1.70;;;2.80;99.90;;;;;;5095038;28;20047;-49
2023/01/17 01:52:38;;;;;;;14.57;2.55;;;2.80;99.90;;;;;;5095102;28;20051;-48
2023/01/17 01:55:09;;;;;;;10.30;1.27;;;2.70;99.90;;;;;;5094025;28;20043;-47
2023/01/17 01:57:39;;;;;;;9.55;1.60;;;2.70;99.90;;;;;;5094222;28;20051;-46
2023/01/17 02:00:28;;;;;;;5.15;1.00;;;2.90;99.90;;;;;;5076482;28;20047;-46
2023/01/17 02:02:57;;;;;;;6.72;0.98;;;2.90;99.90;;;;;;5095058;28;20055;-47
2023/01/17 02:05:25;;;;;;;7.30;1.08;;;2.80;99.90;;;;;;5059267;28;20063;-47
2023/01/17 02:07:57;;;;;;;7.18;0.85;;;2.80;99.90;;;;;;5076743;28;20505;-47
2023/01/17 02:10:23;;;;;;;5.22;0.70;;;2.70;99.90;;;;;;5077523;28;20311;-45
2023/01/17 02:12:51;;;;;;;6.63;1.00;;;2.70;99.90;;;;;;5095150;28;20131;-46
2023/01/17 02:15:17;;;;;;;3.92;1.20;;;2.60;99.90;;;;;;5094811;28;20051;-47
2023/01/17 02:18:05;;;;;;;6.82;0.75;;;2.70;99.90;;;;;;5090672;28;20274;-45
2023/01/17 02:21:06;;;;;;;4.82;0.82;;;2.60;99.90;;;;;;5094808;28;20071;-47
2023/01/17 02:24:04;;;;;;;2.90;0.80;;;2.40;99.90;;;;;;5011579;28;20401;-46
2023/01/17 02:26:35;;;;;;;6.32;0.73;;;2.50;99.90;;;;;;4971876;28;20051;-45
2023/01/17 02:29:34;;;;;;;3.75;0.70;;;2.40;99.90;;;;;;4955230;28;20070;-45
2023/01/17 02:32:13;;;;;;;4.28;0.90;;;2.40;99.90;;;;;;4955263;28;20536;-44
2023/01/17 02:34:46;;;;;;;3.55;0.80;;;2.50;99.90;;;;;;4970936;28;20089;-48
2023/01/17 02:37:24;;;;;;;5.07;1.25;;;2.50;99.90;;;;;;4965242;28;20142;-46
2023/01/17 02:40:08;;;;;;;8.80;1.00;;;2.40;99.90;;;;;;4965877;28;20145;-47
2023/01/17 02:42:41;;;;;;;3.63;0.52;;;2.30;99.90;;;;;;4971415;28;20077;-46
2023/01/17 02:45:08;;;;;;;7.70;0.85;;;2.30;99.90;;;;;;4958115;28;20168;-50
2023/01/17 02:47:33;;;;;;;5.88;0.77;;;2.30;99.90;;;;;;4971004;28;20555;-45
2023/01/17 02:50:16;;;;;;;8.70;1.40;;;2.30;99.90;;;;;;4971098;28;20069;-47
2023/01/17 02:53:11;;;;;;;3.35;1.00;;;2.20;99.90;;;;;;4971201;28;20188;-46
2023/01/17 02:56:15;;;;;;;8.73;0.90;;;2.20;99.90;;;;;;4893223;29;20067;-47
2023/01/17 02:59:09;;;;;;;3.72;0.80;;;2.10;99.90;;;;;;4895129;29;20485;-47
2023/01/17 03:01:44;;;;;;;4.80;0.85;;;2.10;99.90;;;;;;4878815;29;20094;-46
2023/01/17 03:04:19;;;;;;;7.40;0.88;;;2.10;99.90;;;;;;4913540;29;20090;-47
2023/01/17 03:06:59;;;;;;;5.57;0.90;;;1.90;99.90;;;;;;4912436;29;20438;-46
2023/01/17 03:09:26;;;;;;;6.28;1.30;;;1.90;99.90;;;;;;4913931;29;20062;-46
2023/01/17 03:11:53;;;;;;;7.25;1.55;;;2.00;99.90;;;;;;4914237;29;20067;-46
2023/01/17 03:14:19;;;;;;;6.43;0.90;;;2.00;99.90;;;;;;4913405;29;20786;-46
2023/01/17 03:16:45;;;;;;;9.00;1.50;;;1.90;99.90;;;;;;4909151;29;20083;-45
2023/01/17 03:19:13;;;;;;;9.45;1.20;;;2.00;99.90;;;;;;4908041;29;20152;-47
2023/01/17 03:21:39;;;;;;;7.25;1.25;;;1.80;99.90;;;;;;4905721;29;20058;-47
2023/01/17 03:24:05;;;;;;;8.05;1.20;;;1.90;99.90;;;;;;4913009;29;20048;-46
2023/01/17 03:26:31;;;;;;;3.65;1.00;;;1.90;99.90;;;;;;4914425;29;20510;-45
2023/01/17 03:28:56;;;;;;;4.32;1.10;;;1.80;99.90;;;;;;4912829;29;20417;-45
2023/01/17 03:31:22;;;;;;;8.55;1.80;;;2.00;99.90;;;;;;4913990;29;20071;-47
2023/01/17 03:33:48;;;;;;;6.43;1.25;;;2.00;99.90;;;;;;4991584;28;20606;-46
2023/01/17 03:36:14;;;;;;;9.73;1.73;;;2.00;99.90;;;;;;5002944;28;20041;-47
2023/01/17 03:38:40;;;;;;;13.65;2.10;;;2.00;99.90;;;;;;5035474;28;20055;-47
2023/01/17 03:41:06;;;;;;;8.40;1.27;;;1.90;99.90;;;;;;5093456;28;20427;-47
2023/01/17 03:43:31;;;;;;;10.70;1.20;;;1.80;99.90;;;;;;5077141;28;20047;-46
2023/01/17 03:46:06;;;;;;;11.63;1.40;;;1.80;99.90;;;;;;5093467;28;20055;-47
2023/01/17 03:48:32;;;;;;;12.57;1.75;;;1.90;99.90;;;;;;5074472;28;20054;-47
2023/01/17 03:50:58;;;;;;;6.43;1.13;;;1.80;99.90;;;;;;5092974;28;20381;-47
2023/01/17 03:53:23;;;;;;;9.40;1.23;;;1.70;99.90;;;;;;5097146;28;20044;-47
2023/01/17 03:55:49;;;;;;;10.32;1.17;;;1.60;99.90;;;;;;5096924;28;20108;-47
2023/01/17 03:58:15;;;;;;;6.63;1.23;;;1.60;99.90;;;;;;5097322;28;20047;-47
2023/01/17 04:00:41;;;;;;;11.23;2.03;;;1.70;99.90;;;;;;5098162;28;20315;-46
2023/01/17 04:03:07;;;;;;;11.88;1.40;;;1.70;99.90;;;;;;5097761;28;20048;-47
2023/01/17 04:05:32;;;;;;;12.85;3.25;;;1.70;99.90;;;;;;5096771;28;20525;-46
2023/01/17 04:07:58;;;;;;;8.73;1.45;;;1.60;99.90;;;;;;5096751;28;20477;-47
2023/01/17 04:10:24;;;;;;;7.07;1.00;;;1.60;99.90;;;;;;5078982;28;20735;-48
2023/01/17 04:12:49;;;;;;;5.63;1.13;;;1.50;99.90;;;;;;5097461;28;20435;-46
2023/01/17 04:15:15;;;;;;;8.77;2.17;;;1.40;99.90;;;;;;5097471;28;20051;-45
2023/01/17 04:17:41;;;;;;;7.30;1.50;;;1.50;99.90;;;;;;5092611;28;20051;-47
2023/01/17 04:20:20;;;;;;;9.13;1.30;;;1.40;99.90;;;;;;5097185;28;20069;-47
2023/01/17 04:22:46;;;;;;;7.45;1.38;;;1.40;99.90;;;;;;5097732;28;20326;-48
2023/01/17 04:25:11;;;;;;;7.00;1.20;;;1.30;99.90;;;;;;5096302;28;20058;-47
2023/01/17 04:27:37;;;;;;;5.75;1.13;;;1.30;99.90;;;;;;5096843;28;20203;-48
2023/01/17 04:30:03;;;;;;;11.55;1.10;;;1.30;99.90;;;;;;5097077;28;20143;-48
2023/01/17 04:32:29;;;;;;;4.63;0.90;;;1.30;99.90;;;;;;5096902;28;20047;-47
2023/01/17 04:34:54;;;;;;;8.90;1.27;;;1.20;99.90;;;;;;5077443;28;20054;-45
2023/01/17 04:37:21;;;;;;;5.05;1.00;;;1.10;99.90;;;;;;5096670;28;20052;-49
2023/01/17 04:39:46;;;;;;;5.63;1.00;;;1.10;99.90;;;;;;5096743;28;20072;-46
2023/01/17 04:42:12;;;;;;;6.55;1.00;;;1.10;99.90;;;;;;5097198;28;20818;-47
2023/01/17 04:44:38;;;;;;;7.90;1.08;;;1.00;99.90;;;;;;5095926;28;20059;-46
2023/01/17 04:47:04;;;;;;;10.50;2.08;;;1.00;99.90;;;;;;5096163;28;20039;-46
2023/01/17 04:49:30;;;;;;;4.53;0.82;;;0.90;99.90;;;;;;5096598;28;20570;-46
2023/01/17 04:51:55;;;;;;;3.58;0.98;;;0.90;99.90;;;;;;5096264;28;20123;-47
2023/01/17 04:54:21;;;;;;;3.65;1.23;;;0.80;99.90;;;;;;5076787;28;20059;-44
2023/01/17 04:56:47;;;;;;;10.57;1.48;;;0.80;99.90;;;;;;5096283;28;20039;-47
2023/01/17 04:59:13;;;;;;;6.90;0.95;;;0.60;99.90;;;;;;5078545;28;20457;-47
2023/01/17 05:01:39;;;;;;;9.65;1.75;;;0.60;99.90;;;;;;5077099;28;20051;-47
2023/01/17 05:04:04;;;;;;;6.50;1.88;;;0.50;99.90;;;;;;5092673;28;20431;-45
2023/01/17 05:06:30;;;;;;;11.50;3.15;;;0.50;99.90;;;;;;5093169;28;20479;-48
2023/01/17 05:08:56;;;;;;;4.95;1.90;;;0.50;99.90;;;;;;5081373;28;20507;-47
2023/01/17 05:11:21;;;;;;;6.25;1.73;;;0.50;99.90;;;;;;5096369;28;20070;-48
2023/01/17 05:13:47;;;;;;;6.03;2.15;;;0.50;99.90;;;;;;5096396;28;20044;-45
2023/01/17 05:16:17;;;;;;;9.20;1.98;;;0.50;99.90;;;;;;5077726;28;20066;-46
2023/01/17 05:18:42;;;;;;;10.90;1.20;;;0.40;99.90;;;;;;5072905;28;20051;-45
2023/01/17 05:21:08;;;;;;;8.95;1.70;;;0.40;99.90;;;;;;5096302;28;20386;-47
2023/01/17 05:23:34;;;;;;;5.03;1.05;;;0.30;99.90;;;;;;5095752;28;20100;-47
2023/01/17 05:25:59;;;;;;;9.98;1.60;;;0.30;99.90;;;;;;5096258;28;20050;-44
2023/01/17 05:28:25;;;;;;;7.88;1.35;;;0.30;99.90;;;;;;5094948;28;20049;-45
2023/01/17 05:30:51;;;;;;;13.07;1.48;;;0.40;99.90;;;;;;5095526;28;20122;-48
2023/01/17 05:33:16;;;;;;;7.90;1.50;;;0.40;99.90;;;;;;5095303;28;20088;-46
2023/01/17 05:35:42;;;;;;;10.13;1.70;;;0.30;99.90;;;;;;5094888;28;20130;-53
2023/01/17 05:38:08;;;;;;;10.38;3.50;;;0.30;99.90;;;;;;5094872;28;20052;-48
2023/01/17 05:40:33;;;;;;;11.70;4.22;;;0.30;99.90;;;;;;5078344;28;20589;-46
2023/01/17 05:43:02;;;;;;;11.68;3.13;;;0.30;99.90;;;;;;5095620;28;20043;-46
2023/01/17 05:45:29;;;;;;;12.00;2.40;;;0.30;99.90;;;;;;5095347;28;20091;-45
2023/01/17 05:47:56;;;;;;;6.63;1.70;;;0.40;99.90;;;;;;5094717;28;20520;-48
2023/01/17 05:50:24;;;;;;;6.43;1.30;;;0.40;99.90;;;;;;5095097;28;20053;-46
2023/01/17 05:52:58;;;;;;;6.50;1.30;;;0.50;99.90;;;;;;5077604;28;20526;-47
2023/01/17 05:55:25;;;;;;;8.40;1.95;;;0.50;99.90;;;;;;5094961;28;20381;-45
2023/01/17 05:57:52;;;;;;;9.00;1.20;;;0.50;99.90;;;;;;5076339;28;20063;-47
2023/01/17 06:00:18;;;;;;;6.30;1.02;;;0.60;99.90;;;;;;5095739;28;20135;-46
2023/01/17 06:02:45;;;;;;;5.57;1.10;;;0.70;99.90;;;;;;5077290;28;20059;-47
2023/01/17 06:05:11;;;;;;;8.32;1.30;;;0.70;99.90;;;;;;5094491;28;20075;-46
2023/01/17 06:07:36;;;;;;;6.28;1.50;;;0.70;99.90;;;;;;5094850;28;20100;-47
2023/01/17 06:10:02;;;;;;;7.05;2.15;;;0.70;99.90;;;;;;5095397;28;20048;-46
2023/01/17 06:12:28;;;;;;;19.13;3.17;;;0.70;99.90;;;;;;5090823;28;20055;-48
2023/01/17 06:14:54;;;;;;;7.22;2.20;;;0.60;99.90;;;;;;5085346;28;20066;-52
2023/01/17 06:17:19;;;;;;;7.72;1.95;;;0.60;99.90;;;;;;5094563;28;20039;-47
2023/01/17 06:19:45;;;;;;;8.38;1.83;;;0.50;99.90;;;;;;5095102;28;20136;-46
2023/01/17 06:22:11;;;;;;;6.03;1.50;;;0.60;99.90;;;;;;5095100;28;20100;-46
2023/01/17 06:24:36;;;;;;;10.48;1.75;;;0.50;99.90;;;;;;5094289;28;20051;-46
2023/01/17 06:27:02;;;;;;;9.43;1.85;;;0.40;99.90;;;;;;5093627;28;20389;-47
2023/01/17 06:29:28;;;;;;;10.45;2.03;;;0.50;99.90;;;;;;5076213;28;20101;-46
2023/01/17 06:31:53;;;;;;;7.63;1.13;;;0.50;99.90;;;;;;5094516;28;20066;-46
2023/01/17 06:34:19;;;;;;;6.70;2.40;;;0.60;99.90;;;;;;5093931;28;20456;-45
2023/01/17 06:36:45;;;;;;;5.78;1.20;;;0.60;99.90;;;;;;5094251;28;20039;-45
2023/01/17 06:39:10;;;;;;;11.52;1.38;;;0.50;99.90;;;;;;5094061;28;20151;-48
2023/01/17 06:41:36;;;;;;;6.28;1.50;;;0.60;99.90;;;;;;5094175;28;20051;-46
2023/01/17 06:44:02;;;;;;;11.48;1.30;;;0.50;99.90;;;;;;5093486;28;20044;-45
2023/01/17 06:46:28;;;;;;;7.13;1.20;;;0.50;99.90;;;;;;5094376;28;20043;-46
2023/01/17 06:48:54;;;;;;;7.00;1.20;;;0.40;99.90;;;;;;5075294;28;20134;-46
2023/01/17 06:51:19;;;;;;;6.03;1.30;;;0.40;99.90;;;;;;5075587;28;20524;-49
2023/01/17 06:53:47;;;;;;;7.18;1.10;;;0.40;99.90;;;;;;5094058;28;20139;-45
2023/01/17 06:56:13;;;;;;;5.55;1.38;;;0.50;99.90;;;;;;5059517;28;20105;-45
2023/01/17 06:58:39;;;;;;;8.55;1.52;;;0.40;99.90;;;;;;5093614;28;20516;-46
2023/01/17 07:01:09;;;;;;;7.60;1.10;;;0.40;99.90;;;;;;5093631;28;20100;-47
2023/01/17 07:03:35;;;;;;;7.85;1.70;;;0.40;99.90;;;;;;5093356;28;20494;-47
2023/01/17 07:06:02;;;;;;;6.65;1.45;;;0.30;99.90;;;;;;5076140;28;20048;-46
2023/01/17 07:08:28;;;;;;;4.57;1.25;;;0.30;99.90;;;;;;5093656;28;20118;-46
2023/01/17 07:11:02;;;;;;;7.45;2.15;;;0.30;99.90;;;;;;5094031;28;20075;-47
2023/01/17 07:13:29;;;;;;;13.85;2.50;;;0.20;99.90;;;;;;5074396;28;20066;-45
2023/01/17 07:15:55;;;;;;;7.55;2.17;;;0.20;99.90;;;;;;5093168;28;20083;-46
2023/01/17 07:18:24;;;;;;;7.68;1.60;;;0.20;99.90;;;;;;5093085;28;20496;-46
2023/01/17 07:20:50;;;;;;;10.75;2.17;;;0.20;99.90;;;;;;5092588;28;20039;-45
2023/01/17 07:23:17;;;;;;;5.95;1.30;;;0.20;99.90;;;;;;5093878;28;20053;-47
2023/01/17 07:25:43;;;;;;;4.00;1.20;;;0.20;99.90;;;;;;5058574;28;20048;-47
2023/01/17 07:28:08;;;;;;;6.70;1.60;;;0.20;99.90;;;;;;5096222;28;20118;-48
2023/01/17 07:30:35;;;;;;;10.05;2.78;;;0.20;99.90;;;;;;5097340;28;20040;-46
2023/01/17 07:33:01;;;;;;;9.13;2.60;;;0.10;99.90;;;;;;5096513;28;20564;-46
2023/01/17 07:35:26;;;;;;;4.88;1.73;;;0.10;99.90;;;;;;5093813;28;20221;-46
2023/01/17 07:37:53;;;;;;;8.98;2.58;;;0.10;99.90;;;;;;5095292;28;20039;-47
2023/01/17 07:40:21;;;;;;;7.22;2.47;;;0.10;99.90;;;;;;5079178;28;20105;-46
2023/01/17 07:42:46;;;;;;;5.68;2.45;;;0.20;99.90;;;;;;5098732;28;20047;-46
2023/01/17 07:45:14;;;;;;;7.28;2.25;;;0.30;99.90;;;;;;5096173;28;20051;-45
2023/01/17 07:47:40;;;;;;;7.50;2.13;;;0.20;99.90;;;;;;5093310;28;20041;-46
2023/01/17 07:50:07;;;;;;;8.68;1.50;;;0.20;99.90;;;;;;5095821;28;20124;-46
2023/01/17 07:52:33;;;;;;;5.55;1.90;;;0.20;99.90;;;;;;5096927;28;20438;-47
2023/01/17 07:54:58;;;;;;;5.72;2.03;;;0.30;99.90;;;;;;5095916;28;20048;-45
2023/01/17 07:57:24;;;;;;;5.80;1.65;;;0.20;99.90;;;;;;5095949;28;20051;-47
2023/01/17 07:59:51;;;;;;;5.35;1.20;;;0.30;99.90;;;;;;5095959;28;20061;-47
2023/01/17 08:02:19;;;;;;;11.05;1.30;;;0.20;99.90;;;;;;5096741;28;20058;-45
2023/01/17 08:04:45;;;;;;;10.70;1.70;;;0.20;99.90;;;;;;5094821;28;20039;-46
2023/01/17 08:07:12;;;;;;;3.95;1.30;;;0.20;99.90;;;;;;5095946;28;20103;-46
2023/01/17 08:09:41;;;;;;;7.93;1.25;;;0.30;99.90;;;;;;5097055;28;20039;-46
2023/01/17 08:12:07;;;;;;;7.00;1.50;;;0.10;99.90;;;;;;5096545;28;20058;-46
2023/01/17 08:14:33;;;;;;;9.13;1.40;;;0.10;99.90;;;;;;5090322;28;20083;-45
2023/01/17 08:17:24;;;;;;;6.22;1.70;;;0.20;99.90;;;;;;5085006;28;20050;-48
2023/01/17 08:19:51;;;;;;;5.80;1.90;;;0.10;99.90;;;;;;5082877;28;20090;-45
2023/01/17 08:22:17;;;;;;;11.20;2.50;;;0.20;99.90;;;;;;5080561;28;20058;-46
2023/01/17 08:24:43;;;;;;;8.93;2.97;;;0.10;99.90;;;;;;5095009;28;20424;-47
2023/01/17 08:27:09;;;;;;;7.45;2.38;;;0.30;99.90;;;;;;5076382;28;20950;-47
2023/01/17 08:29:35;;;;;;;10.68;2.60;;;0.40;99.90;;;;;;5082534;28;20052;-46
2023/01/17 08:32:01;;;;;;;8.93;2.88;;;0.50;99.90;;;;;;5088104;28;20513;-44
2023/01/17 08:34:27;;;;;;;6.55;2.92;;;0.50;99.90;;;;;;5088297;28;20059;-45
2023/01/17 08:36:53;;;;;;;11.15;4.25;;;0.70;99.90;;;;;;5076307;28;20053;-46
2023/01/17 08:39:19;;;;;;;4.30;2.03;;;0.70;99.90;;;;;;5096356;28;20048;-45
2023/01/17 08:41:46;;;;;;;5.78;1.90;;;0.90;99.90;;;;;;5096814;28;20067;-46
2023/01/17 08:44:12;;;;;;;8.60;2.03;;;0.80;99.90;;;;;;5096113;28;20416;-46
2023/01/17 08:46:38;;;;;;;9.55;1.55;;;0.80;99.90;;;;;;5095466;28;20069;-47
2023/01/17 08:49:04;;;;;;;6.18;1.50;;;0.80;99.90;;;;;;5096277;28;20043;-45
2023/01/17 08:51:31;;;;;;;8.35;1.50;;;0.90;99.90;;;;;;5077383;28;20138;-47
2023/01/17 08:53:57;;;;;;;3.35;1.50;;;0.80;99.90;;;;;;5095220;28;20557;-46
2023/01/17 08:56:24;;;;;;;5.32;1.15;;;0.90;99.90;;;;;;5095769;28;20513;-47
2023/01/17 08:58:50;;;;;;;4.10;0.93;;;0.90;99.90;;;;;;5096361;28;20052;-45
2023/01/17 09:01:16;;;;;;;5.75;1.27;;;0.90;99.90;;;;;;5095995;28;20156;-46
2023/01/17 09:03:42;;;;;;;4.38;1.23;;;1.10;99.90;;;;;;5095634;28;20054;-50
2023/01/17 09:06:12;;;;;;;6.05;1.55;;;1.10;99.90;;;;;;5095397;28;20056;-47
2023/01/17 09:08:39;;;;;;;7.68;2.03;;;1.10;99.90;;;;;;5094826;28;20040;-46
2023/01/17 09:11:10;;;;;;;6.22;2.05;;;1.30;99.90;;;;;;5095388;28;20507;-45
2023/01/17 09:13:36;;;;;;;9.30;1.70;;;1.40;99.90;;;;;;5094584;28;20039;-49
2023/01/17 09:16:02;;;;;;;5.45;1.88;;;1.40;99.90;;;;;;5096056;28;20043;-46
2023/01/17 09:18:29;;;;;;;10.55;1.73;;;1.50;99.90;;;;;;5096036;28;20074;-48
2023/01/17 09:20:57;;;;;;;5.63;1.33;;;1.60;99.90;;;;;;5060530;28;20044;-47
2023/01/17 09:23:25;;;;;;;8.00;1.80;;;1.70;99.90;;;;;;5076716;28;20059;-47
2023/01/17 09:25:58;;;;;;;5.20;1.80;;;1.70;99.90;;;;;;5076425;28;20606;-48
2023/01/17 09:28:24;;;;;;;;;;;1.70;99.90;;;;;;5094769;28;20126;-46
2023/01/17 09:30:51;;;;;;;1.52;0.73;;;1.60;99.90;;;;;;5078123;28;20014;-45
2023/01/17 09:33:17;;;;;;;5.07;1.13;;;1.80;99.90;;;;;;5077232;28;20052;-47
2023/01/17 09:35:43;;;;;;;7.25;1.30;;;1.80;99.90;;;;;;5095122;28;20134;-47
2023/01/17 09:38:10;;;;;;;4.32;1.40;;;1.80;99.90;;;;;;5093484;28;20051;-48
2023/01/17 09:40:41;;;;;;;4.07;1.38;;;1.80;99.90;;;;;;5093824;28;20035;-48
2023/01/17 09:43:22;;;;;;;3.35;1.23;;;1.80;99.90;;;;;;5093432;28;20230;-47
2023/01/17 09:45:48;;;;;;;5.82;1.20;;;1.80;99.90;;;;;;5095042;28;20047;-45
2023/01/17 09:48:22;;;;;;;5.60;1.17;;;1.90;99.90;;;;;;5094037;28;20059;-48
2023/01/17 09:50:58;;;;;;;6.75;1.33;;;1.90;99.90;;;;;;5094184;28;20093;-46
2023/01/17 09:53:25;;;;;;;6.13;1.50;;;1.90;99.90;;;;;;5093489;28;20043;-46
2023/01/17 09:55:52;;;;;;;6.72;2.00;;;1.90;99.90;;;;;;5091911;28;20036;-45
2023/01/17 09:58:44;;;;;;;8.60;1.73;;;1.90;99.90;;;;;;5093508;28;20047;-46
2023/01/17 10:01:41;;;;;;;6.63;0.95;;;2.00;99.90;;;;;;5094156;28;20512;-46
2023/01/17 10:04:44;;;;;;;5.28;1.35;;;1.90;99.90;;;;;;5094243;28;20571;-49
2023/01/17 10:07:48;;;;;;;6.03;1.17;;;2.00;99.90;;;;;;5076088;28;20523;-46
2023/01/17 10:10:34;;;;;;;6.65;1.40;;;2.00;99.90;;;;;;5093112;28;20103;-49
2023/01/17 10:13:11;;;;;;;3.63;1.30;;;2.00;99.90;;;;;;5094108;28;20052;-49
2023/01/17 10:16:04;;;;;;;4.70;1.20;;;2.00;99.90;;;;;;5076331;28;20982;-48
2023/01/17 10:18:48;;;;;;;3.05;1.10;;;2.10;99.90;;;;;;5094697;28;20043;-46
2023/01/17 10:21:49;;;;;;;6.60;1.38;;;2.10;99.90;;;;;;5082766;28;20560;-49
2023/01/17 10:24:35;;;;;;;4.90;1.60;;;2.20;99.90;;;;;;5094385;28;20131;-45
2023/01/17 10:27:11;;;;;;;5.65;1.45;;;2.30;99.90;;;;;;5094083;28;20048;-49
2023/01/17 10:29:37;;;;;;;5.47;1.63;;;2.30;99.90;;;;;;5077321;28;20062;-47
2023/01/17 10:32:03;;;;;;;4.82;1.60;;;2.40;99.90;;;;;;5093635;28;20415;-50
2023/01/17 10:34:45;;;;;;;5.30;1.20;;;2.50;99.90;;;;;;5092756;28;20047;-45
2023/01/17 10:37:15;;;;;;;7.55;1.23;;;2.60;99.90;;;;;;5091899;28;20043;-47
2023/01/17 10:39:44;;;;;;;7.95;1.65;;;2.60;99.90;;;;;;5094556;28;20503;-47
2023/01/17 10:42:21;;;;;;;5.47;1.67;;;2.50;99.90;;;;;;5093912;28;20426;-50
2023/01/17 10:45:17;;;;;;;6.63;1.80;;;2.40;99.90;;;;;;5094237;28;20046;-46
2023/01/17 10:47:52;;;;;;;7.18;1.00;;;2.40;99.90;;;;;;5075611;28;20366;-45
2023/01/17 10:50:21;;;;;;;8.02;1.30;;;2.40;99.90;;;;;;5083200;28;20120;-46
2023/01/17 10:52:46;;;;;;;3.35;1.30;;;2.40;99.90;;;;;;5094371;28;20472;-45
2023/01/17 10:55:27;;;;;;;5.35;1.45;;;2.40;99.90;;;;;;5094997;28;20059;-46
2023/01/17 10:57:54;;;;;;;8.48;1.30;;;2.50;99.90;;;;;;5094173;28;20590;-45
2023/01/17 11:01:06;;;;;;;8.05;1.00;;;2.60;99.90;;;;;;5076665;28;20055;-46
2023/01/17 11:03:33;;;;;;;4.32;1.40;;;2.70;99.90;;;;;;5075826;28;20051;-47
2023/01/17 11:06:17;;;;;;;4.50;1.27;;;2.80;99.90;;;;;;5094367;28;20464;-46
2023/01/17 11:08:53;;;;;;;6.68;1.15;;;2.80;99.90;;;;;;5095333;28;20150;-46
2023/01/17 11:11:23;;;;;;;7.80;1.30;;;2.90;99.90;;;;;;5082526;28;20169;-45
2023/01/17 11:13:51;;;;;;;2.83;0.85;;;3.00;99.90;;;;;;5093373;28;20050;-47
2023/01/17 11:16:23;;;;;;;9.63;1.40;;;3.00;99.90;;;;;;5093813;28;20047;-47
2023/01/17 11:19:07;;;;;;;7.75;1.38;;;3.10;99.90;;;;;;5094248;28;20047;-46
2023/01/17 11:21:33;;;;;;;;;;;3.20;99.90;;;;;;5094838;28;20733;-45
2023/01/17 11:24:09;;;;;;;6.05;1.30;;;3.20;99.90;;;;;;5092947;28;19927;-47
2023/01/17 11:26:44;;;;;;;2.80;0.95;;;3.30;99.90;;;;;;5093594;28;20036;-46
2023/01/17 11:29:35;;;;;;;5.57;1.30;;;3.40;99.90;;;;;;5058764;28;20056;-46
2023/01/17 11:32:19;;;;;;;6.00;1.20;;;3.50;99.90;;;;;;5010428;28;20457;-46
2023/01/17 11:35:13;;;;;;;3.63;1.20;;;3.60;99.90;;;;;;5010502;28;20041;-48
2023/01/17 11:37:47;;;;;;;1.67;1.05;;;3.60;99.90;;;;;;5009685;28;20053;-46
2023/01/17 11:40:49;;;;;;;4.32;1.10;;;3.70;99.90;;;;;;4994191;28;20042;-46
2023/01/17 11:43:23;;;;;;;3.53;0.95;;;3.70;99.90;;;;;;4951346;28;20054;-47
2023/01/17 11:46:19;;;;;;;4.40;1.27;;;3.70;99.90;;;;;;4952269;28;20051;-47
2023/01/17 11:48:53;;;;;;;4.57;0.90;;;3.70;99.90;;;;;;4940568;28;20070;-47
2023/01/17 11:51:24;;;;;;;4.53;1.15;;;3.70;99.90;;;;;;4951686;28;20233;-46
2023/01/17 11:53:51;;;;;;;3.88;1.02;;;3.70;99.90;;;;;;4952257;28;20051;-47
2023/01/17 11:56:19;;;;;;;10.45;1.80;;;3.70;99.90;;;;;;4951819;28;20379;-45
2023/01/17 11:58:46;;;;;;;5.65;1.15;;;3.70;99.90;;;;;;4952536;28;20058;-45
2023/01/17 12:01:30;;;;;;;6.57;1.85;;;3.70;99.90;;;;;;4935927;28;20098;-47
2023/01/17 12:04:44;;;;;;;4.72;1.00;;;3.70;99.90;;;;;;4951061;28;20057;-46
2023/01/17 12:07:30;;;;;;;8.07;1.90;;;3.70;99.90;;;;;;4912386;29;20094;-45
2023/01/17 12:10:14;;;;;;;5.18;1.00;;;3.70;99.90;;;;;;4877819;29;20048;-45
2023/01/17 12:15:44;;;;;;;3.95;1.30;;;3.70;99.90;;;;;;4893205;29;20470;-48
2023/01/17 12:18:16;;;;;;;5.47;1.02;;;3.90;99.90;;;;;;4930093;28;20490;-47
2023/01/17 12:21:05;;;;;;;2.70;1.10;;;4.00;99.90;;;;;;4935749;28;20051;-46
2023/01/17 12:24:04;;;;;;;3.03;1.30;;;4.10;99.90;;;;;;4936072;29;20273;-46
2023/01/17 12:26:34;;;;;;;7.40;0.90;;;4.10;99.90;;;;;;4920118;29;20055;-45
2023/01/17 12:29:36;;;;;;;7.05;1.65;;;4.10;99.90;;;;;;4935949;29;20103;-48
2023/01/17 12:32:10;;;;;;;10.00;1.67;;;4.00;99.90;;;;;;4936199;29;20055;-46
2023/01/17 12:34:46;;;;;;;7.88;1.83;;;4.00;99.90;;;;;;4936094;29;20455;-47
2023/01/17 12:37:23;;;;;;;6.20;1.10;;;4.00;99.90;;;;;;4919963;29;20082;-45
2023/01/17 12:40:09;;;;;;;3.03;1.00;;;4.00;99.90;;;;;;4936347;29;20490;-45
2023/01/17 12:42:42;;;;;;;5.95;1.08;;;4.00;99.90;;;;;;4948440;28;20382;-45
2023/01/17 12:45:12;;;;;;;5.50;1.30;;;4.00;99.90;;;;;;4973585;28;20169;-47
2023/01/17 12:47:47;;;;;;;2.67;0.90;;;4.00;99.90;;;;;;5059730;28;20124;-47
2023/01/17 12:50:31;;;;;;;4.40;0.80;;;4.00;99.90;;;;;;5079540;28;20055;-46
2023/01/17 12:53:24;;;;;;;2.10;0.88;;;4.00;99.90;;;;;;5096920;28;20086;-45
2023/01/17 12:56:43;;;;;;;2.92;0.75;;;4.00;99.90;;;;;;5053718;28;20091;-47
2023/01/17 12:59:14;;;;;;;5.30;1.17;;;4.00;99.90;;;;;;4973751;28;20100;-45
2023/01/17 13:01:56;;;;;;;2.90;0.90;;;4.00;99.90;;;;;;4974577;28;20054;-47
2023/01/17 13:04:49;;;;;;;4.97;1.00;;;4.00;99.90;;;;;;4970645;28;20047;-47
2023/01/17 13:07:43;;;;;;;4.65;1.50;;;3.90;99.90;;;;;;4968559;28;20150;-46
2023/01/17 13:11:04;;;;;;;2.65;0.80;;;3.90;99.90;;;;;;4963253;28;20090;-47
2023/01/17 13:13:31;;;;;;;4.28;1.08;;;3.90;99.90;;;;;;4873705;29;20514;-46
2023/01/17 13:16:16;;;;;;;4.20;0.70;;;3.80;99.90;;;;;;4880839;29;20151;-47
2023/01/17 13:18:47;;;;;;;1.67;0.70;;;3.80;99.90;;;;;;4896727;29;20396;-47
2023/01/17 13:21:29;;;;;;;3.65;0.80;;;3.80;99.90;;;;;;4866588;29;20555;-47
2023/01/17 13:24:06;;;;;;;1.00;0.60;;;3.80;99.90;;;;;;4895360;29;20463;-47
2023/01/17 13:26:56;;;;;;;3.05;0.70;;;3.80;99.90;;;;;;4896835;29;20080;-49
2023/01/17 13:29:51;;;;;;;2.70;0.80;;;3.80;99.90;;;;;;4881947;29;20627;-47
2023/01/17 13:32:53;;;;;;;2.97;0.82;;;3.80;99.90;;;;;;4892813;28;20206;-45
2023/01/17 13:35:49;;;;;;;2.80;0.77;;;3.80;99.90;;;;;;4993003;28;20042;-46
2023/01/17 13:38:21;;;;;;;4.72;2.25;;;3.80;99.90;;;;;;4993043;28;20057;-47
2023/01/17 13:40:53;;;;;;;4.82;0.70;;;3.80;99.90;;;;;;4977175;28;20315;-46
2023/01/17 13:43:33;;;;;;;2.85;0.70;;;3.80;99.90;;;;;;4984504;28;20065;-46
2023/01/17 13:46:02;;;;;;;2.15;0.80;;;3.80;99.90;;;;;;5095046;28;20503;-46
2023/01/17 13:48:39;;;;;;;3.38;1.02;;;3.80;99.90;;;;;;5077577;28;20478;-46
2023/01/17 13:51:09;;;;;;;3.50;0.70;;;3.90;99.90;;;;;;5095330;28;20141;-46
2023/01/17 13:53:35;;;;;;;3.83;1.00;;;3.90;99.90;;;;;;5095817;28;20404;-47
2023/01/17 13:56:26;;;;;;;4.60;0.80;;;3.90;99.90;;;;;;5076157;28;20506;-46
2023/01/17 13:58:57;;;;;;;3.42;0.75;;;3.90;99.90;;;;;;5077984;28;20127;-45
2023/01/17 14:01:24;;;;;;;2.70;0.80;;;3.80;99.90;;;;;;5095357;28;20478;-47
2023/01/17 14:03:49;;;;;;;3.95;1.02;;;3.80;99.90;;;;;;5077207;28;20333;-45
2023/01/17 14:06:39;;;;;;;2.42;0.90;;;3.80;99.90;;;;;;5095074;28;20112;-46
2023/01/17 14:09:49;;;;;;;5.82;1.50;;;3.80;99.90;;;;;;5095401;28;20104;-47
2023/01/17 14:12:18;;;;;;;5.38;1.63;;;3.80;99.90;;;;;;5012499;28;20061;-46
2023/01/17 14:14:47;;;;;;;4.63;1.13;;;3.70;99.90;;;;;;5011895;28;20142;-45
2023/01/17 14:17:24;;;;;;;2.97;0.57;;;3.70;99.90;;;;;;4989452;28;20484;-48
2023/01/17 14:20:02;;;;;;;2.58;0.85;;;3.60;99.90;;;;;;4995501;28;20469;-47
2023/01/17 14:22:32;;;;;;;2.92;0.80;;;3.60;99.90;;;;;;4993991;28;20045;-46
2023/01/17 14:25:16;;;;;;;6.07;0.70;;;3.60;99.90;;;;;;5011195;28;20053;-47
2023/01/17 14:27:42;;;;;;;4.68;1.05;;;3.50;99.90;;;;;;4994704;28;20068;-46
2023/01/17 14:30:16;;;;;;;2.10;0.63;;;3.50;99.90;;;;;;5011458;28;20045;-46
2023/01/17 14:33:21;;;;;;;3.58;1.10;;;3.40;99.90;;;;;;5010665;28;20053;-46
2023/01/17 14:36:13;;;;;;;2.78;0.65;;;3.40;99.90;;;;;;5010700;28;20055;-46
2023/01/17 14:38:42;;;;;;;4.30;0.80;;;3.30;99.90;;;;;;5010773;28;20041;-47
2023/01/17 14:41:22;;;;;;;5.03;0.90;;;3.20;99.90;;;;;;5010702;28;20049;-45
2023/01/17 14:43:50;;;;;;;2.58;0.77;;;3.20;99.90;;;;;;4994221;28;20621;-47
2023/01/17 14:46:24;;;;;;;4.82;1.13;;;3.10;99.90;;;;;;5033522;28;20043;-45
2023/01/17 14:48:58;;;;;;;2.95;1.00;;;3.00;99.90;;;;;;5094838;28;20464;-47